createdAt,value
2023-09-29T00:05:45.295Z,99.90
2023-09-29T00:16:43.711Z,99.90
2023-09-29T00:23:26.150Z,99.90
2023-09-29T00:30:11.201Z,99.90
2023-09-29T00:36:53.384Z,99.90
2023-09-29T00:43:36.663Z,99.90
2023-09-29T00:50:20.989Z,99.90
2023-09-29T00:57:06.705Z,99.90
2023-09-29T01:03:51.342Z,99.90
2023-09-29T01:10:34.797Z,99.90
2023-09-29T01:17:19.176Z,99.90
2023-09-29T01:24:01.521Z,99.90
2023-09-29T01:30:44.332Z,99.90
2023-09-29T01:37:26.961Z,99.90
2023-09-29T01:44:09.223Z,99.90
2023-09-29T01:50:51.584Z,99.90
2023-09-29T01:57:34.351Z,99.90
2023-09-29T02:04:16.751Z,99.90
2023-09-29T02:11:01.224Z,99.90
2023-09-29T02:17:45.492Z,99.90
2023-09-29T02:24:27.894Z,99.90
2023-09-29T02:31:13.978Z,99.90
2023-09-29T02:37:56.282Z,99.90
2023-09-29T02:44:39.057Z,99.90
2023-09-29T02:51:21.618Z,99.90
2023-09-29T02:58:04.269Z,99.90
2023-09-29T03:04:48.002Z,99.90
2023-09-29T03:11:30.279Z,99.90
2023-09-29T03:18:12.628Z,99.90
2023-09-29T03:24:54.954Z,99.90
2023-09-29T03:31:37.239Z,99.90
2023-09-29T03:38:21.210Z,99.90
2023-09-29T03:45:06.287Z,99.90
2023-09-29T03:51:48.667Z,99.90
2023-09-29T03:58:30.897Z,99.90
2023-09-29T04:05:13.060Z,99.90
2023-09-29T04:11:55.275Z,99.90
2023-09-29T04:18:39.213Z,99.90
2023-09-29T04:25:21.669Z,99.90
2023-09-29T04:32:04.729Z,99.90
2023-09-29T04:38:46.999Z,99.90
2023-09-29T04:45:29.288Z,99.90
2023-09-29T04:52:11.574Z,99.90
2023-09-29T04:58:54.124Z,99.90
2023-09-29T05:05:36.566Z,99.90
2023-09-29T05:12:18.961Z,99.90
2023-09-29T05:19:01.906Z,99.90
2023-09-29T05:25:46.222Z,99.90
2023-09-29T05:32:30.968Z,99.90
2023-09-29T05:39:15.218Z,99.90
2023-09-29T05:45:57.536Z,99.90
2023-09-29T05:52:39.776Z,99.90
2023-09-29T05:59:22.166Z,99.90
2023-09-29T06:06:05.294Z,99.90
2023-09-29T06:12:47.491Z,99.90
2023-09-29T06:19:29.704Z,99.90
2023-09-29T06:26:12.675Z,99.90
2023-09-29T06:32:55.082Z,99.90
2023-09-29T06:39:37.791Z,99.90
2023-09-29T06:46:20.059Z,99.90
2023-09-29T06:53:03.454Z,99.90
2023-09-29T06:59:45.653Z,99.90
2023-09-29T07:06:27.945Z,99.90
2023-09-29T07:13:11.391Z,99.90
2023-09-29T07:19:53.594Z,99.90
2023-09-29T07:26:36.237Z,99.90
2023-09-29T07:33:19.166Z,99.90
2023-09-29T07:40:01.664Z,99.90
2023-09-29T07:46:43.908Z,99.90
2023-09-29T07:53:26.126Z,99.90
2023-09-29T08:00:13.546Z,99.90
2023-09-29T08:06:55.959Z,99.90
2023-09-29T08:13:38.157Z,99.90
2023-09-29T08:20:21.071Z,99.80
2023-09-29T08:27:03.428Z,94.80
2023-09-29T08:33:51.265Z,92.00
2023-09-29T08:40:40.213Z,88.60
2023-09-29T08:47:28.556Z,91.40
2023-09-29T08:54:10.912Z,90.90
2023-09-29T09:00:53.573Z,89.40
2023-09-29T09:07:36.044Z,86.70
2023-09-29T09:14:19.252Z,84.00
2023-09-29T09:21:01.586Z,83.40
2023-09-29T09:27:44.340Z,81.10
2023-09-29T09:34:38.369Z,79.40
2023-09-29T09:41:20.918Z,78.00
2023-09-29T09:48:09.451Z,79.10
2023-09-29T09:54:58.778Z,79.70
2023-09-29T10:01:41.733Z,80.60
2023-09-29T10:08:31.337Z,81.90
2023-09-29T10:15:15.527Z,80.70
2023-09-29T10:22:00.589Z,80.90
2023-09-29T10:28:44.587Z,81.60
2023-09-29T10:35:27.422Z,80.50
2023-09-29T10:42:16.208Z,80.70
2023-09-29T10:48:59.122Z,79.90
2023-09-29T10:55:52.283Z,80.30
2023-09-29T11:02:34.937Z,79.40
2023-09-29T11:09:20.476Z,79.90
2023-09-29T11:16:05.064Z,80.80
2023-09-29T11:23:00.191Z,81.50
2023-09-29T11:29:44.040Z,82.30
2023-09-29T11:36:30.084Z,82.40
2023-09-29T11:43:13.061Z,83.20
2023-09-29T11:49:57.300Z,83.80
2023-09-29T11:56:39.726Z,84.10
2023-09-29T12:03:24.059Z,84.10
2023-09-29T12:10:07.029Z,83.70
2023-09-29T12:16:49.239Z,83.40
2023-09-29T12:23:31.532Z,82.80
2023-09-29T12:30:13.981Z,82.40
2023-09-29T12:36:56.315Z,82.20
2023-09-29T12:43:39.996Z,82.00
2023-09-29T12:50:23.455Z,81.40
2023-09-29T12:57:06.635Z,81.30
2023-09-29T13:03:49.237Z,80.10
2023-09-29T13:10:32.562Z,79.70
2023-09-29T13:17:14.871Z,79.80
2023-09-29T13:23:57.489Z,80.10
2023-09-29T13:30:53.299Z,80.00
2023-09-29T13:37:37.556Z,79.60
2023-09-29T13:44:19.780Z,79.90
2023-09-29T13:51:06.949Z,79.50
2023-09-29T13:57:49.235Z,80.10
2023-09-29T14:04:32.023Z,80.50
2023-09-29T14:11:14.444Z,80.60
2023-09-29T14:17:57.609Z,81.20
2023-09-29T14:24:40.024Z,81.20
2023-09-29T14:31:25.857Z,81.00
2023-09-29T14:38:08.182Z,82.40
2023-09-29T14:44:50.733Z,88.80
2023-09-29T14:51:32.952Z,92.20
2023-09-29T14:58:15.134Z,93.80
2023-09-29T15:04:57.673Z,94.70
2023-09-29T15:11:39.956Z,95.90
2023-09-29T15:18:22.816Z,97.70
2023-09-29T15:25:05.617Z,99.90
2023-09-29T15:31:48.618Z,99.90
2023-09-29T15:38:30.835Z,99.90
2023-09-29T15:45:14.772Z,99.90
2023-09-29T15:51:57.218Z,99.90
2023-09-29T15:58:40.898Z,99.90
2023-09-29T16:05:23.228Z,99.90
2023-09-29T16:12:05.771Z,99.90
2023-09-29T16:18:48.514Z,99.30
2023-09-29T16:25:34.989Z,99.60
2023-09-29T16:32:31.079Z,99.90
2023-09-29T16:39:16.362Z,99.90
2023-09-29T16:45:58.841Z,99.90
2023-09-29T16:52:42.290Z,99.90
2023-09-29T16:59:24.514Z,99.90
2023-09-29T17:06:06.863Z,99.90
2023-09-29T17:12:49.167Z,99.90
2023-09-29T17:19:31.435Z,99.90
2023-09-29T17:26:14.627Z,99.90
2023-09-29T17:32:56.889Z,99.90
2023-09-29T17:39:39.209Z,99.90
2023-09-29T17:46:21.625Z,99.90
2023-09-29T17:53:04.010Z,99.90
2023-09-29T17:59:46.355Z,99.90
2023-09-29T18:06:29.843Z,99.90
2023-09-29T18:13:12.308Z,99.90
2023-09-29T18:19:54.535Z,99.90
2023-09-29T18:26:37.029Z,99.90
2023-09-29T18:33:19.452Z,99.90
2023-09-29T18:40:01.863Z,99.90
2023-09-29T18:46:45.709Z,99.90
2023-09-29T18:53:27.989Z,99.90
2023-09-29T19:00:12.546Z,99.90
2023-09-29T19:06:55.862Z,99.90
2023-09-29T19:13:38.330Z,99.90
2023-09-29T19:20:21.041Z,99.90
2023-09-29T19:27:03.441Z,99.90
2023-09-29T19:33:45.764Z,99.90
2023-09-29T19:40:28.121Z,99.90
2023-09-29T19:47:10.366Z,99.90
2023-09-29T19:53:56.420Z,99.90
2023-09-29T20:00:39.074Z,99.90
2023-09-29T20:07:21.416Z,99.90
2023-09-29T20:14:04.002Z,99.90
2023-09-29T20:20:47.192Z,99.90
2023-09-29T20:27:29.579Z,99.90
2023-09-29T20:34:14.723Z,99.90
2023-09-29T20:40:57.153Z,99.90
2023-09-29T20:47:41.469Z,99.90
2023-09-29T20:54:23.800Z,99.90
2023-09-29T21:01:06.548Z,99.90
2023-09-29T21:07:49.290Z,99.90
2023-09-29T21:14:33.673Z,99.90
2023-09-29T21:21:16.957Z,99.90
2023-09-29T21:27:59.489Z,99.90
2023-09-29T21:34:41.757Z,99.90
2023-09-29T21:41:24.298Z,99.90
2023-09-29T21:48:07.328Z,99.90
2023-09-29T21:54:49.638Z,99.90
2023-09-29T22:01:32.018Z,99.90
2023-09-29T22:08:15.199Z,99.90
2023-09-29T22:14:57.652Z,99.90
2023-09-29T22:21:40.002Z,99.90
2023-09-29T22:28:22.387Z,99.90
2023-09-29T22:35:05.547Z,99.90
2023-09-29T22:41:48.814Z,99.90
2023-09-29T22:48:31.512Z,99.90
2023-09-29T22:55:14.791Z,99.90
2023-09-29T23:01:56.988Z,99.90
2023-09-29T23:08:40.234Z,99.90
2023-09-29T23:15:23.251Z,99.90
2023-09-29T23:22:05.509Z,99.90
2023-09-29T23:28:47.740Z,99.90
2023-09-29T23:35:31.281Z,99.90
2023-09-29T23:42:13.532Z,99.90
2023-09-29T23:48:56.093Z,99.90
2023-09-29T23:55:38.366Z,99.90
